CYVM

Details ICAO CYVM (YVM)
Name QIKIQTARJUAQ
Region Canada
Timezone Unknown (UTC+0.0)
Plans Departing 15
Arriving 25
Stats Elevation 21 ft / 6 m (AMSL)
Location 67.546236° -64.030706°
Runways 1
Magnetic Variation 31.937° W
Sunrise 2018-05-23 05:27:02 UTC / 2018-05-23 05:27:02 Local
Sunset 2018-05-24 03:01:36 UTC / 2018-05-24 03:01:36 Local
Advertisement - Login to hide

Runways

ID Width Length Bearing (true) Bearing (mag) Surface Threshold Offset Overrun Length
03T 100 ft / 30 m 3,741 ft / 1,140 m 33.20° 65.14° Gravel 0 ft / 0 m 0 ft / 0 m
21T 100 ft / 30 m 3,741 ft / 1,140 m 213.21° 245.15° Gravel 0 ft / 0 m 0 ft / 0 m

Map

Weather


0- 5 10 15 20 25 30 35+ Temperature / ° C

Clouds and Precipitation
Forecast for 2018-05-23 12:00 UTC. Updated 2 hours ago

Ground ~20,000 ft ~40,000 ft Winds

METAR

CYVM 231300Z 01011KT 12SM -SN FEW010 FEW020 OVC041 M01/M04 A2971 RMK ST1SC1SC8 ST TR SC TR VRY LGT SN SLP064

TAF

TAF CYVM 231238Z 2313/2401 34010KT P6SM BKN040 TEMPO 2313/2401 3SM -SHSN FEW010 BKN020 RMK NXT FCST BY 231900Z

Frequencies

Recorded 122.55 MHz AWOS
Unicom 122.10 MHz CTAF
Warning: Do not use this data for real-world aviation or navigation. No guarantee of current accuracy is given.